createdAt,value
2019-05-07T00:02:33.112Z,5.47
2019-05-07T00:07:27.708Z,5.07
2019-05-07T00:12:23.068Z,4.90
2019-05-07T00:17:17.768Z,5.20
2019-05-07T00:22:12.669Z,5.50
2019-05-07T00:27:07.426Z,4.80
2019-05-07T00:32:02.909Z,5.20
2019-05-07T00:37:02.267Z,5.40
2019-05-07T00:41:56.628Z,5.37
2019-05-07T00:46:52.534Z,9.67
2019-05-07T00:51:47.365Z,7.83
2019-05-07T00:56:42.851Z,7.20
2019-05-07T01:01:38.249Z,5.57
2019-05-07T01:06:33.237Z,6.33
2019-05-07T01:11:27.961Z,6.10
2019-05-07T01:16:22.624Z,5.80
2019-05-07T01:21:17.265Z,6.33
2019-05-07T01:26:12.427Z,6.50
2019-05-07T01:31:07.120Z,6.33
2019-05-07T01:36:05.740Z,6.90
2019-05-07T01:41:02.704Z,6.63
2019-05-07T01:45:56.634Z,5.93
2019-05-07T01:50:52.544Z,6.93
2019-05-07T01:55:47.744Z,6.40
2019-05-07T02:00:42.664Z,5.67
2019-05-07T02:05:42.403Z,5.83
2019-05-07T02:10:42.825Z,5.57
2019-05-07T02:15:37.658Z,5.53
2019-05-07T02:20:32.388Z,5.80
2019-05-07T02:25:27.183Z,5.47
2019-05-07T02:30:23.680Z,5.67
2019-05-07T02:35:18.988Z,6.13
2019-05-07T02:40:22.916Z,6.00
2019-05-07T02:45:19.798Z,5.70
2019-05-07T02:50:16.306Z,6.13
2019-05-07T02:55:15.550Z,5.60
2019-05-07T03:00:14.065Z,6.30
2019-05-07T03:05:07.029Z,5.50
2019-05-07T03:10:03.446Z,5.50
2019-05-07T03:14:58.069Z,5.27
2019-05-07T03:19:54.392Z,5.53
2019-05-07T03:24:52.986Z,5.70
2019-05-07T03:29:48.664Z,5.30
2019-05-07T03:34:58.103Z,5.87
2019-05-07T03:39:53.811Z,5.70
2019-05-07T03:44:59.088Z,5.43
2019-05-07T03:49:54.539Z,5.47
2019-05-07T03:54:49.133Z,5.57
2019-05-07T03:59:43.733Z,5.83
2019-05-07T04:04:38.303Z,5.87
2019-05-07T04:09:33.523Z,5.60
2019-05-07T04:14:28.449Z,6.23
2019-05-07T04:19:23.683Z,5.83
2019-05-07T04:24:23.499Z,5.03
2019-05-07T04:29:19.086Z,5.77
2019-05-07T04:34:15.327Z,4.93
2019-05-07T04:39:12.954Z,4.50
2019-05-07T04:44:06.339Z,4.53
2019-05-07T04:49:03.274Z,4.37
2019-05-07T04:53:57.243Z,4.47
2019-05-07T04:58:53.099Z,4.80
2019-05-07T05:03:47.982Z,4.30
2019-05-07T05:08:43.455Z,5.00
2019-05-07T05:13:38.462Z,5.27
2019-05-07T05:18:33.133Z,5.50
2019-05-07T05:23:32.951Z,5.30
2019-05-07T05:28:27.564Z,4.60
2019-05-07T05:33:23.462Z,4.93
2019-05-07T05:38:18.351Z,4.97
2019-05-07T05:43:22.403Z,5.50
2019-05-07T05:48:16.848Z,6.50
2019-05-07T05:53:12.210Z,5.10
2019-05-07T05:58:14.394Z,4.90
2019-05-07T06:03:13.148Z,5.07
2019-05-07T06:08:09.834Z,5.17
2019-05-07T06:13:16.745Z,4.97
2019-05-07T06:18:29.091Z,5.03
2019-05-07T06:23:26.377Z,4.80
2019-05-07T06:28:22.363Z,4.80
2019-05-07T06:33:17.168Z,5.17
2019-05-07T06:38:13.069Z,4.70
2019-05-07T06:43:12.484Z,4.70
2019-05-07T06:48:08.259Z,4.93
2019-05-07T06:53:02.936Z,5.17
2019-05-07T06:57:57.491Z,4.73
2019-05-07T07:03:12.685Z,4.93
2019-05-07T07:08:23.032Z,5.30
2019-05-07T07:13:18.564Z,5.37
2019-05-07T07:18:14.308Z,4.60
2019-05-07T07:23:09.061Z,5.00
2019-05-07T07:28:03.699Z,4.37
2019-05-07T07:32:59.939Z,4.60
2019-05-07T07:37:56.778Z,4.40
2019-05-07T07:42:52.045Z,4.60
2019-05-07T07:47:47.930Z,4.13
2019-05-07T07:52:43.186Z,4.67
2019-05-07T07:57:48.125Z,4.47
2019-05-07T08:02:44.654Z,5.87
2019-05-07T08:07:39.398Z,4.17
2019-05-07T08:12:34.125Z,4.23
2019-05-07T08:17:28.818Z,4.10
2019-05-07T08:22:24.229Z,3.77
2019-05-07T08:27:22.224Z,4.20
2019-05-07T08:32:19.597Z,3.87
2019-05-07T08:37:18.722Z,3.70
2019-05-07T08:42:13.585Z,3.63
2019-05-07T08:47:24.813Z,4.10
2019-05-07T08:52:19.380Z,3.67
2019-05-07T08:57:14.949Z,4.10
2019-05-07T09:02:09.642Z,3.83
2019-05-07T09:07:04.340Z,3.23
2019-05-07T09:12:04.737Z,3.10
2019-05-07T09:17:02.182Z,3.50
2019-05-07T09:22:12.740Z,3.70
2019-05-07T09:27:17.656Z,3.80
2019-05-07T09:32:32.500Z,4.13
2019-05-07T09:37:42.017Z,2.70
2019-05-07T09:42:46.997Z,2.77
2019-05-07T09:47:42.939Z,2.90
2019-05-07T09:52:38.418Z,3.00
2019-05-07T09:57:34.712Z,2.60
2019-05-07T10:02:31.945Z,2.63
2019-05-07T10:07:26.595Z,2.90
2019-05-07T10:12:23.560Z,2.37
2019-05-07T10:17:22.709Z,2.40
2019-05-07T10:22:17.779Z,2.50
2019-05-07T10:27:14.093Z,2.90
2019-05-07T10:32:08.831Z,2.70
2019-05-07T10:37:03.502Z,2.73
2019-05-07T10:41:58.077Z,2.47
2019-05-07T10:47:12.111Z,2.57
2019-05-07T10:52:08.355Z,2.20
2019-05-07T10:57:02.962Z,2.53
2019-05-07T11:01:59.333Z,2.33
2019-05-07T11:06:53.891Z,2.63
2019-05-07T11:11:48.490Z,2.47
2019-05-07T11:16:45.275Z,2.40
2019-05-07T11:21:41.774Z,2.70
2019-05-07T11:26:36.858Z,2.90
2019-05-07T11:31:36.175Z,2.50
2019-05-07T11:36:37.970Z,2.20
2019-05-07T11:41:37.511Z,1.30
2019-05-07T11:46:34.244Z,1.67
2019-05-07T11:51:47.065Z,1.47
2019-05-07T11:56:44.746Z,1.20
2019-05-07T12:01:47.019Z,1.30
2019-05-07T12:06:39.326Z,2.10
2019-05-07T12:11:38.306Z,2.30
2019-05-07T12:16:33.128Z,1.90
2019-05-07T12:21:27.837Z,1.77
2019-05-07T12:26:22.507Z,2.27
2019-05-07T12:31:17.457Z,1.63
2019-05-07T12:36:13.905Z,2.97
2019-05-07T12:41:26.671Z,2.17
2019-05-07T12:46:22.363Z,1.80
2019-05-07T12:51:30.540Z,1.60
2019-05-07T12:56:14.410Z,1.90
2019-05-07T13:01:11.980Z,1.87
2019-05-07T13:06:06.791Z,1.60
2019-05-07T13:11:03.062Z,1.50
2019-05-07T13:15:58.733Z,1.80
2019-05-07T13:20:53.446Z,2.00
2019-05-07T13:25:48.260Z,2.10
2019-05-07T13:30:43.889Z,2.07
2019-05-07T13:35:39.735Z,1.57
2019-05-07T13:40:37.370Z,2.10
2019-05-07T13:45:35.708Z,2.00
2019-05-07T13:50:32.521Z,1.80
2019-05-07T13:55:28.426Z,2.20
2019-05-07T14:00:25.299Z,2.70
2019-05-07T14:05:21.737Z,1.87
2019-05-07T14:10:17.740Z,2.17
2019-05-07T14:15:12.833Z,2.20
2019-05-07T14:20:07.864Z,2.43
2019-05-07T14:25:02.538Z,2.10
2019-05-07T14:29:58.876Z,2.00
2019-05-07T14:35:04.224Z,2.30
2019-05-07T14:40:02.557Z,2.33
2019-05-07T14:44:56.952Z,2.53
2019-05-07T14:49:52.975Z,2.50
2019-05-07T14:54:48.756Z,2.30
2019-05-07T14:59:46.335Z,2.10
2019-05-07T15:04:41.945Z,2.20
2019-05-07T15:09:36.743Z,2.10
2019-05-07T15:14:34.863Z,1.97
2019-05-07T15:19:29.526Z,2.10
2019-05-07T15:24:24.260Z,2.13
2019-05-07T15:29:18.998Z,2.50
2019-05-07T15:34:13.658Z,2.10
2019-05-07T15:39:08.444Z,2.37
2019-05-07T15:44:03.114Z,2.30
2019-05-07T15:48:57.709Z,2.40
2019-05-07T15:53:54.013Z,2.20
2019-05-07T15:58:48.624Z,2.33
2019-05-07T16:03:44.840Z,2.60
2019-05-07T16:08:42.517Z,2.40
2019-05-07T16:13:48.243Z,2.37
2019-05-07T16:19:01.899Z,2.70
2019-05-07T16:23:56.586Z,2.80
2019-05-07T16:28:52.856Z,2.80
2019-05-07T16:33:47.553Z,2.87
2019-05-07T16:38:42.168Z,2.70
2019-05-07T16:43:36.748Z,2.70
2019-05-07T16:48:32.727Z,2.93
2019-05-07T16:53:30.236Z,2.20
2019-05-07T16:58:25.578Z,2.47
2019-05-07T17:03:22.317Z,3.00
2019-05-07T17:08:16.672Z,2.67
2019-05-07T17:13:12.565Z,2.57
2019-05-07T17:18:07.395Z,2.23
2019-05-07T17:23:02.956Z,2.50
2019-05-07T17:27:57.956Z,2.50
2019-05-07T17:32:52.677Z,2.50
2019-05-07T17:37:47.234Z,2.43
2019-05-07T17:42:41.843Z,2.60
2019-05-07T17:47:36.432Z,2.60
2019-05-07T17:52:32.354Z,2.50
2019-05-07T17:57:27.302Z,2.50
2019-05-07T18:02:24.312Z,3.40
2019-05-07T18:07:19.040Z,3.40
2019-05-07T18:12:13.622Z,3.47
2019-05-07T18:17:09.997Z,3.60
2019-05-07T18:22:04.755Z,3.73
2019-05-07T18:26:59.409Z,3.37
2019-05-07T18:32:01.567Z,3.10
2019-05-07T18:36:56.163Z,3.13
2019-05-07T18:41:52.303Z,3.17
2019-05-07T18:46:47.119Z,3.40
2019-05-07T18:51:42.689Z,3.40
2019-05-07T18:56:37.541Z,3.90
2019-05-07T19:01:33.793Z,3.90
2019-05-07T19:06:28.401Z,3.87
2019-05-07T19:11:23.106Z,4.10
2019-05-07T19:16:17.737Z,4.57
2019-05-07T19:21:12.398Z,4.73
2019-05-07T19:26:07.026Z,5.40
2019-05-07T19:31:01.622Z,4.70
2019-05-07T19:35:56.210Z,4.70
2019-05-07T19:40:52.784Z,4.03
2019-05-07T19:45:47.267Z,4.10
2019-05-07T19:50:42.094Z,3.80
2019-05-07T19:55:54.693Z,4.30
2019-05-07T20:00:49.454Z,5.17
2019-05-07T20:05:44.066Z,4.73
2019-05-07T20:10:42.110Z,4.80
2019-05-07T20:15:38.438Z,4.63
2019-05-07T20:20:33.274Z,4.30
2019-05-07T20:25:27.899Z,4.27
2019-05-07T20:30:22.930Z,4.27
2019-05-07T20:35:18.614Z,4.20
2019-05-07T20:40:13.522Z,4.47
2019-05-07T20:45:08.309Z,4.00
2019-05-07T20:50:02.906Z,4.47
2019-05-07T20:54:59.133Z,4.20
2019-05-07T20:59:56.077Z,4.07
2019-05-07T21:04:51.916Z,4.23
2019-05-07T21:09:46.836Z,4.37
2019-05-07T21:14:41.866Z,4.53
2019-05-07T21:19:36.613Z,3.73
2019-05-07T21:24:33.067Z,3.83
2019-05-07T21:29:27.514Z,3.70
2019-05-07T21:34:23.064Z,4.20
2019-05-07T21:39:17.770Z,3.63
2019-05-07T21:44:12.345Z,4.07
2019-05-07T21:49:07.081Z,4.33
2019-05-07T21:54:09.057Z,4.57
2019-05-07T21:59:07.746Z,4.30
2019-05-07T22:04:02.400Z,4.60
2019-05-07T22:08:57.012Z,4.67
2019-05-07T22:13:52.615Z,4.53
2019-05-07T22:18:47.925Z,5.10
2019-05-07T22:23:42.968Z,5.13
2019-05-07T22:28:38.080Z,5.07
2019-05-07T22:33:34.347Z,5.67
2019-05-07T22:38:28.928Z,5.30
2019-05-07T22:43:23.705Z,4.63
2019-05-07T22:48:18.292Z,5.00
2019-05-07T22:53:12.885Z,5.40
2019-05-07T22:58:26.939Z,5.00
2019-05-07T23:03:22.854Z,5.33
2019-05-07T23:08:17.606Z,4.80
2019-05-07T23:13:12.967Z,5.73
2019-05-07T23:18:07.977Z,5.03
2019-05-07T23:23:02.548Z,5.30
2019-05-07T23:27:57.151Z,4.67
2019-05-07T23:32:52.770Z,6.00
2019-05-07T23:37:47.791Z,5.77
2019-05-07T23:42:44.002Z,4.73
2019-05-07T23:47:38.599Z,5.37
2019-05-07T23:52:33.166Z,5.73
2019-05-07T23:57:27.762Z,4.60
